MSC Divina — 3FFA5 — position and weather

sailwx.info

Track history (hours):
 
Tides and Currents Weather Stations Pressure Air Temp Water Temp Dewpoint Dewpoint Depression Visibility Wind Speed Wind Dir Waves Ship Positions

MSC Divina

Last reported at 2014-Dec-21 03:33 UTC. Time now 2014-Dec-21 14:26 UTC.
Position N 25°41' W 079°56'.

Length 333 m; draft 8.7 m.

Type: Passenger vessel. MMSI: 373178000.

Date/timePositionNaut miles runAvg speedWind from/ knotsBaromVisibWave heightAir tempDewpointWater temp
2014-Dec-21 03:33N 25°41' W 079°56'1312.8
2014-Dec-21 02:32N 25°46' W 080°09'1 1.2
2014-Dec-21 01:30N 25°47' W 080°10'0 0.0
2014-Dec-21 00:27N 25°47' W 080°10'0 0.0
2014-Dec-20 23:33N 25°47' W 080°10'0 0.0
2014-Dec-20 22:33N 25°47' W 080°10'0 0.0
2014-Dec-20 21:33N 25°47' W 080°10'0 0.0
2014-Dec-20 20:33N 25°47' W 080°10'0 0.0
2014-Dec-20 19:18N 25°47' W 080°10'0 0.0
2014-Dec-20 18:33N 25°47' W 080°10'0 0.0
2014-Dec-20 17:24N 25°47' W 080°10'0 0.0
2014-Dec-20 16:23N 25°47' W 080°10'0 0.0
2014-Dec-20 15:26N 25°47' W 080°10'0 0.0
2014-Dec-20 14:26N 25°47' W 080°10'0 0.0
2014-Dec-20 13:26N 25°47' W 080°10'0 0.0
2014-Dec-20 12:26N 25°47' W 080°10'0 0.0
2014-Dec-20 11:29N 25°47' W 080°10'0 0.1
2014-Dec-20 10:33N 25°47' W 080°11'6 6.3
2014-Dec-20 09:34N 25°46' W 080°04'8 8.2
2014-Dec-20 08:33N 25°50' W 079°55'8 8.0
2014-Dec-20 07:34N 25°54' W 079°48'8 8.3
2014-Dec-20 06:33N 25°58' W 079°40'8 8.2
2014-Dec-20 05:33N 26°02' W 079°32'8 8.3
2014-Dec-20 04:34N 26°07' W 079°24'9 8.9
2014-Dec-20 03:33N 26°11' W 079°15'  
2014-Dec-17 04:33N 18°10' W 064°52'50 2.4
2014-Dec-16 07:32N 18°51' W 064°20'93918.1
2014-Dec-14 03:33N 26°09' W 079°19'1918.6
2014-Dec-14 02:33N 25°60' W 079°37'1919.2
2014-Dec-14 01:33N 25°50' W 079°55'1312.9
2014-Dec-14 00:33N 25°46' W 080°09'1 1.4
2014-Dec-13 23:32N 25°47' W 080°10'0 0.0
2014-Dec-13 22:32N 25°47' W 080°10'0 0.0
2014-Dec-13 21:32N 25°47' W 080°10'0 0.0
2014-Dec-13 20:32N 25°47' W 080°10'0 0.0
2014-Dec-13 19:17N 25°47' W 080°10'0 0.0
2014-Dec-13 18:32N 25°47' W 080°10'0 0.0
2014-Dec-13 17:32N 25°47' W 080°10'0 0.0
2014-Dec-13 16:23N 25°47' W 080°10'0 0.0
2014-Dec-13 15:26N 25°47' W 080°10'0 0.0
2014-Dec-13 14:26N 25°47' W 080°10'0 0.0
2014-Dec-13 13:26N 25°47' W 080°10'0 0.0
2014-Dec-13 12:29N 25°47' W 080°10'0 0.0
2014-Dec-13 11:29N 25°47' W 080°10'0 0.2
2014-Dec-13 10:33N 25°47' W 080°11'5 5.5
2014-Dec-13 09:33N 25°46' W 080°05'1413.8
2014-Dec-13 08:33N 25°52' W 079°51'1818.0
2014-Dec-13 07:33N 26°01' W 079°34'1514.8
2014-Dec-13 06:33N 26°09' W 079°20'1 0.0
2014-Dec-12 06:31N 26°09' W 079°19'1919.5
2014-Dec-12 05:33N 25°52' W 079°28'  
Track history (hours):
 
Tides and Currents Weather Stations Pressure Air Temp Water Temp Dewpoint Dewpoint Depression Visibility Wind Speed Wind Dir Waves Ship Positions

MSC Divina

Last reported at 2014-Dec-21 03:33 UTC. Time now 2014-Dec-21 14:26 UTC.
Position N 25°41' W 079°56'.

Length 333 m; draft 8.7 m.

Type: Passenger vessel. MMSI: 373178000.

Date/timePositionNaut miles runAvg speedWind from/ knotsBaromVisibWave heightAir tempDewpointWater temp
2014-Dec-21 03:33N 25°41' W 079°56'1312.8
2014-Dec-21 02:32N 25°46' W 080°09'1 1.2
2014-Dec-21 01:30N 25°47' W 080°10'0 0.0
2014-Dec-21 00:27N 25°47' W 080°10'0 0.0
2014-Dec-20 23:33N 25°47' W 080°10'0 0.0
2014-Dec-20 22:33N 25°47' W 080°10'0 0.0
2014-Dec-20 21:33N 25°47' W 080°10'0 0.0
2014-Dec-20 20:33N 25°47' W 080°10'0 0.0
2014-Dec-20 19:18N 25°47' W 080°10'0 0.0
2014-Dec-20 18:33N 25°47' W 080°10'0 0.0
2014-Dec-20 17:24N 25°47' W 080°10'0 0.0
2014-Dec-20 16:23N 25°47' W 080°10'0 0.0
2014-Dec-20 15:26N 25°47' W 080°10'0 0.0
2014-Dec-20 14:26N 25°47' W 080°10'0 0.0
2014-Dec-20 13:26N 25°47' W 080°10'0 0.0
2014-Dec-20 12:26N 25°47' W 080°10'0 0.0
2014-Dec-20 11:29N 25°47' W 080°10'0 0.1
2014-Dec-20 10:33N 25°47' W 080°11'6 6.3
2014-Dec-20 09:34N 25°46' W 080°04'8 8.2
2014-Dec-20 08:33N 25°50' W 079°55'8 8.0
2014-Dec-20 07:34N 25°54' W 079°48'8 8.3
2014-Dec-20 06:33N 25°58' W 079°40'8 8.2
2014-Dec-20 05:33N 26°02' W 079°32'8 8.3
2014-Dec-20 04:34N 26°07' W 079°24'9 8.9
2014-Dec-20 03:33N 26°11' W 079°15'  
2014-Dec-17 04:33N 18°10' W 064°52'50 2.4
2014-Dec-16 07:32N 18°51' W 064°20'93918.1
2014-Dec-14 03:33N 26°09' W 079°19'1918.6
2014-Dec-14 02:33N 25°60' W 079°37'1919.2
2014-Dec-14 01:33N 25°50' W 079°55'1312.9
2014-Dec-14 00:33N 25°46' W 080°09'1 1.4
2014-Dec-13 23:32N 25°47' W 080°10'0 0.0
2014-Dec-13 22:32N 25°47' W 080°10'0 0.0
2014-Dec-13 21:32N 25°47' W 080°10'0 0.0
2014-Dec-13 20:32N 25°47' W 080°10'0 0.0
2014-Dec-13 19:17N 25°47' W 080°10'0 0.0
2014-Dec-13 18:32N 25°47' W 080°10'0 0.0
2014-Dec-13 17:32N 25°47' W 080°10'0 0.0
2014-Dec-13 16:23N 25°47' W 080°10'0 0.0
2014-Dec-13 15:26N 25°47' W 080°10'0 0.0
2014-Dec-13 14:26N 25°47' W 080°10'0 0.0
2014-Dec-13 13:26N 25°47' W 080°10'0 0.0
2014-Dec-13 12:29N 25°47' W 080°10'0 0.0
2014-Dec-13 11:29N 25°47' W 080°10'0 0.2
2014-Dec-13 10:33N 25°47' W 080°11'5 5.5
2014-Dec-13 09:33N 25°46' W 080°05'1413.8
2014-Dec-13 08:33N 25°52' W 079°51'1818.0
2014-Dec-13 07:33N 26°01' W 079°34'1514.8
2014-Dec-13 06:33N 26°09' W 079°20'1 0.0
2014-Dec-12 06:31N 26°09' W 079°19'1919.5
2014-Dec-12 05:33N 25°52' W 079°28'  

Dump ship's entire track history